Time;durP1;ratioP1;P1;durP2;ratioP2;P2;SDS_P1;SDS_P2;PMS_P1;PMS_P2;Temp;Humidity;BMP_temperature;BMP_pressure;BME280_temperature;BME280_humidity;BME280_pressure;Samples;Min_cycle;Max_cycle;Signal;HPM_P1;HPM_P2
2022/11/20 00:01:26;;;;;;;16.65;11.32;;;0.10;99.90;;;;;;5067476;28;20227;-80
2022/11/20 00:03:54;;;;;;;19.92;10.93;;;0.20;99.90;;;;;;5056820;28;20296;-80
2022/11/20 00:06:22;;;;;;;16.52;11.10;;;0.30;99.90;;;;;;5087091;22;20289;-80
2022/11/20 00:08:52;;;;;;;16.58;10.75;;;0.30;99.90;;;;;;5080357;28;20215;-80
2022/11/20 00:11:20;;;;;;;17.45;11.52;;;0.30;99.90;;;;;;5080163;28;20207;-80
2022/11/20 00:13:49;;;;;;;16.52;11.52;;;0.40;99.90;;;;;;5076881;28;20233;-80
2022/11/20 00:16:18;;;;;;;17.35;12.48;;;0.40;99.90;;;;;;5083159;28;20267;-80
2022/11/20 00:18:46;;;;;;;17.10;11.13;;;0.50;99.90;;;;;;5085041;28;20287;-80
2022/11/20 00:21:15;;;;;;;22.00;15.25;;;0.50;99.90;;;;;;5084545;28;20204;-80
2022/11/20 00:23:42;;;;;;;30.08;15.20;;;0.50;99.90;;;;;;5084515;28;20207;-80
2022/11/20 00:26:12;;;;;;;22.25;13.60;;;0.50;99.90;;;;;;5069056;28;20219;-79
2022/11/20 00:28:39;;;;;;;19.88;12.80;;;0.50;99.90;;;;;;5068771;28;20349;-80
2022/11/20 00:31:10;;;;;;;20.33;13.80;;;0.60;99.90;;;;;;5082028;28;20267;-80
2022/11/20 00:33:37;;;;;;;19.30;13.60;;;0.60;99.90;;;;;;5080847;28;20291;-81
2022/11/20 00:36:06;;;;;;;19.42;12.75;;;0.60;99.90;;;;;;5081362;28;20202;-80
2022/11/20 00:38:33;;;;;;;22.42;13.82;;;0.60;99.90;;;;;;5080478;28;20295;-80
2022/11/20 00:41:01;;;;;;;19.10;14.88;;;0.70;99.90;;;;;;5081064;28;20211;-80
2022/11/20 00:43:30;;;;;;;26.85;17.02;;;0.70;99.90;;;;;;5079846;28;20230;-80
2022/11/20 00:45:59;;;;;;;26.15;11.95;;;0.70;99.90;;;;;;5080684;28;20278;-80
2022/11/20 00:48:27;;;;;;;20.42;12.85;;;0.80;99.90;;;;;;5079719;28;20223;-80
2022/11/20 00:50:56;;;;;;;22.65;14.43;;;0.80;99.90;;;;;;5078739;28;20197;-80
2022/11/20 00:53:23;;;;;;;20.55;13.45;;;0.80;99.90;;;;;;5081272;28;20199;-80
2022/11/20 00:55:55;;;;;;;20.67;13.60;;;0.70;99.90;;;;;;5082086;28;20290;-80
2022/11/20 00:58:22;;;;;;;20.75;13.80;;;0.70;99.90;;;;;;5081396;28;20223;-80
2022/11/20 01:00:50;;;;;;;20.52;12.43;;;0.60;99.90;;;;;;5077221;28;20208;-80
2022/11/20 01:03:17;;;;;;;23.50;12.82;;;0.60;99.90;;;;;;5077391;28;20222;-80
2022/11/20 01:05:44;;;;;;;18.73;13.02;;;0.50;99.90;;;;;;5077746;28;20273;-80
2022/11/20 01:08:11;;;;;;;24.05;12.82;;;0.50;99.90;;;;;;5077821;28;20220;-80
2022/11/20 01:10:38;;;;;;;17.73;12.85;;;0.50;99.90;;;;;;5077733;28;20738;-80
2022/11/20 01:15:50;;;;;;;22.33;13.05;;;0.50;99.90;;;;;;5081746;28;20218;-80
2022/11/20 01:18:17;;;;;;;20.75;12.55;;;0.40;99.90;;;;;;5079897;28;20225;-80
2022/11/20 01:20:44;;;;;;;21.90;13.73;;;0.40;99.90;;;;;;5078538;28;20207;-80
2022/11/20 01:23:11;;;;;;;18.17;11.20;;;0.40;99.90;;;;;;5078439;28;20213;-80
2022/11/20 01:25:37;;;;;;;16.95;11.38;;;0.30;99.90;;;;;;5078382;28;20211;-80
2022/11/20 01:28:04;;;;;;;15.73;11.18;;;0.40;99.90;;;;;;5078273;28;20318;-80
2022/11/20 01:30:31;;;;;;;20.25;12.65;;;0.30;99.90;;;;;;5079196;28;20256;-80
2022/11/20 01:33:02;;;;;;;20.00;12.05;;;0.30;99.90;;;;;;5079199;28;20197;-79
2022/11/20 01:35:29;;;;;;;26.55;12.32;;;0.30;99.90;;;;;;5080421;28;20285;-80
2022/11/20 01:37:55;;;;;;;26.98;14.63;;;0.30;99.90;;;;;;5066405;28;20225;-80
2022/11/20 01:40:22;;;;;;;16.20;12.80;;;0.20;99.90;;;;;;5070499;28;20202;-80
2022/11/20 01:46:05;;;;;;;20.92;13.00;;;0.20;99.90;;;;;;5080531;28;20265;-80
2022/11/20 01:48:39;;;;;;;21.10;12.23;;;0.10;99.90;;;;;;5078373;28;20380;-81
2022/11/20 01:51:11;;;;;;;21.38;12.35;;;0.10;99.90;;;;;;5087579;28;20264;-79
2022/11/20 01:53:38;;;;;;;17.13;12.13;;;0.10;99.90;;;;;;5087044;28;20198;-79
2022/11/20 01:56:10;;;;;;;19.05;12.60;;;0.10;99.90;;;;;;5080435;28;20210;-80
2022/11/20 01:58:41;;;;;;;18.38;12.75;;;0.10;99.90;;;;;;5077061;28;20239;-79
2022/11/20 02:01:08;;;;;;;23.13;13.20;;;0.10;99.90;;;;;;5076193;28;20564;-80
2022/11/20 02:03:37;;;;;;;19.58;11.68;;;0.10;99.90;;;;;;5076715;28;20231;-80
2022/11/20 02:06:12;;;;;;;18.00;11.68;;;0.10;99.90;;;;;;5077457;28;20275;-80
2022/11/20 02:08:39;;;;;;;19.55;12.77;;;0.10;99.90;;;;;;5077689;28;20716;-80
2022/11/20 02:11:07;;;;;;;14.80;10.82;;;0.20;99.90;;;;;;5076744;28;20213;-80
2022/11/20 02:13:43;;;;;;;20.08;12.52;;;0.20;99.90;;;;;;5077302;28;20323;-80
2022/11/20 02:16:13;;;;;;;26.02;14.00;;;0.10;99.90;;;;;;5076776;28;20716;-79
2022/11/20 02:18:42;;;;;;;21.23;13.05;;;0.10;99.90;;;;;;5077197;28;20292;-80
2022/11/20 02:21:24;;;;;;;20.98;13.23;;;0.10;99.90;;;;;;5077375;28;20293;-80
2022/11/20 02:24:08;;;;;;;18.48;11.55;;;0.00;99.90;;;;;;5056919;28;20234;-80
2022/11/20 02:26:40;;;;;;;18.35;12.35;;;-0.10;99.90;;;;;;5066627;28;20233;-80
2022/11/20 02:29:07;;;;;;;17.35;11.25;;;0.00;99.90;;;;;;5078046;28;20198;-80
2022/11/20 02:31:39;;;;;;;17.33;11.93;;;0.00;99.90;;;;;;5087521;28;20198;-79
2022/11/20 02:34:05;;;;;;;16.98;11.10;;;0.00;99.90;;;;;;5086798;28;20258;-79
2022/11/20 02:36:35;;;;;;;18.15;12.00;;;-0.10;99.90;;;;;;5086913;28;20252;-79
2022/11/20 02:39:04;;;;;;;20.20;13.07;;;0.00;99.90;;;;;;5087123;28;20208;-80
2022/11/20 02:41:36;;;;;;;17.80;12.57;;;-0.10;99.90;;;;;;5087682;28;20198;-79
2022/11/20 02:44:03;;;;;;;19.27;11.75;;;0.00;99.90;;;;;;5087744;28;20235;-80
2022/11/20 02:46:33;;;;;;;19.65;11.73;;;0.00;99.90;;;;;;5087310;28;20289;-79
2022/11/20 02:49:01;;;;;;;20.35;12.85;;;0.10;99.90;;;;;;5081106;28;20216;-80
2022/11/20 02:51:27;;;;;;;19.98;13.55;;;0.10;99.90;;;;;;5082067;28;20266;-79
2022/11/20 02:53:54;;;;;;;22.40;11.75;;;0.10;99.90;;;;;;5088411;28;20275;-79
2022/11/20 02:56:22;;;;;;;18.80;11.80;;;0.00;99.90;;;;;;5088280;28;20237;-79
2022/11/20 02:58:49;;;;;;;16.58;11.23;;;0.00;99.90;;;;;;5088780;28;20268;-79
2022/11/20 03:01:16;;;;;;;17.75;11.85;;;0.10;99.90;;;;;;5088120;28;20233;-79
2022/11/20 03:03:43;;;;;;;18.58;13.32;;;0.00;99.90;;;;;;5087879;28;20264;-80
2022/11/20 03:06:10;;;;;;;19.48;12.98;;;-0.10;99.90;;;;;;5087762;28;20226;-79
2022/11/20 03:08:37;;;;;;;17.38;11.25;;;0.00;99.90;;;;;;5084675;28;20297;-80
2022/11/20 03:11:05;;;;;;;20.83;13.32;;;0.00;99.90;;;;;;5083724;28;20219;-79
2022/11/20 03:13:34;;;;;;;20.60;13.30;;;0.10;99.90;;;;;;5084655;28;20203;-79
2022/11/20 03:16:07;;;;;;;17.90;11.85;;;-0.10;99.90;;;;;;5086691;28;20714;-80
2022/11/20 03:18:33;;;;;;;17.30;11.30;;;-0.20;99.90;;;;;;5091571;28;20276;-79
2022/11/20 03:21:00;;;;;;;21.10;13.10;;;-0.10;99.90;;;;;;5090965;28;20246;-79
2022/11/20 03:23:30;;;;;;;21.55;12.93;;;-0.10;99.90;;;;;;5092203;28;20309;-79
2022/11/20 03:25:57;;;;;;;30.83;18.70;;;0.00;99.90;;;;;;5086172;28;20293;-80
2022/11/20 03:28:24;;;;;;;24.38;14.93;;;0.10;99.90;;;;;;5083155;28;20719;-80
2022/11/20 03:30:52;;;;;;;20.40;13.65;;;0.20;99.90;;;;;;5081874;28;20289;-80
2022/11/20 03:33:19;;;;;;;22.35;13.77;;;0.20;99.90;;;;;;5082296;28;20208;-80
2022/11/20 03:35:46;;;;;;;17.77;12.02;;;0.30;99.90;;;;;;5081084;28;20271;-80
2022/11/20 03:38:12;;;;;;;20.90;12.60;;;0.20;99.90;;;;;;5080395;28;20232;-80
2022/11/20 03:40:39;;;;;;;17.17;12.43;;;0.30;99.90;;;;;;5080607;28;20217;-80
2022/11/20 03:43:06;;;;;;;16.20;11.95;;;0.30;99.90;;;;;;5080247;28;20224;-80
2022/11/20 03:45:33;;;;;;;18.75;12.82;;;0.30;99.90;;;;;;5080661;28;20210;-80
2022/11/20 03:48:01;;;;;;;19.95;13.10;;;0.40;99.90;;;;;;5080521;28;20311;-79
2022/11/20 03:50:28;;;;;;;19.25;11.38;;;0.50;99.90;;;;;;5080970;28;20629;-80
2022/11/20 03:52:54;;;;;;;21.85;12.80;;;0.50;99.90;;;;;;5081080;28;20284;-80
2022/11/20 03:55:21;;;;;;;20.50;13.98;;;0.50;99.90;;;;;;5080837;28;20581;-80
2022/11/20 03:57:51;;;;;;;19.42;12.50;;;0.40;99.90;;;;;;5080331;28;20294;-79
2022/11/20 04:00:18;;;;;;;19.25;13.10;;;0.40;99.90;;;;;;5080547;28;20291;-80
2022/11/20 04:02:44;;;;;;;17.15;11.90;;;0.50;99.90;;;;;;5080378;28;20220;-80
2022/11/20 04:05:13;;;;;;;20.27;12.45;;;0.50;99.90;;;;;;5080823;28;20262;-80
2022/11/20 04:07:39;;;;;;;20.15;12.55;;;0.50;99.90;;;;;;5080917;28;20253;-80
2022/11/20 04:10:07;;;;;;;19.50;13.80;;;0.50;99.90;;;;;;5080909;28;20286;-80
2022/11/20 04:12:34;;;;;;;20.55;12.27;;;0.50;99.90;;;;;;5079367;28;20305;-80
2022/11/20 04:15:01;;;;;;;19.00;13.43;;;0.50;99.90;;;;;;5076682;28;20250;-80
2022/11/20 04:17:28;;;;;;;15.65;11.80;;;0.50;99.90;;;;;;5080428;28;20291;-80
2022/11/20 04:19:54;;;;;;;22.13;11.73;;;0.60;99.90;;;;;;5079534;28;20210;-80
2022/11/20 04:22:23;;;;;;;17.77;12.57;;;0.60;99.90;;;;;;5079812;28;20286;-80
2022/11/20 04:24:49;;;;;;;17.52;12.90;;;0.60;99.90;;;;;;5080431;28;20197;-80
2022/11/20 04:27:16;;;;;;;17.17;12.40;;;0.60;99.90;;;;;;5080079;28;20224;-80
2022/11/20 04:29:43;;;;;;;20.40;12.88;;;0.50;99.90;;;;;;5079936;28;20200;-80
2022/11/20 04:32:10;;;;;;;22.33;11.38;;;0.50;99.90;;;;;;5073289;28;20914;-80
2022/11/20 04:34:37;;;;;;;26.15;13.57;;;0.60;99.90;;;;;;5060771;28;20299;-80
2022/11/20 04:37:04;;;;;;;16.48;12.25;;;0.60;99.90;;;;;;5078695;28;20224;-80
2022/11/20 04:39:32;;;;;;;18.90;12.18;;;0.60;99.90;;;;;;5081259;28;20211;-80
2022/11/20 04:44:40;;;;;;;18.95;12.77;;;0.60;99.90;;;;;;5078887;28;20228;-80
2022/11/20 04:47:07;;;;;;;18.77;11.88;;;0.60;99.90;;;;;;5080116;28;20711;-80
2022/11/20 04:49:33;;;;;;;20.83;12.60;;;0.60;99.90;;;;;;5063695;28;20217;-77
2022/11/20 04:52:00;;;;;;;21.13;12.65;;;0.60;99.90;;;;;;5078107;28;20210;-77
2022/11/20 04:54:27;;;;;;;16.80;10.70;;;0.70;99.90;;;;;;5077685;28;20202;-78
2022/11/20 04:56:55;;;;;;;20.35;11.98;;;0.60;99.90;;;;;;5077166;28;20225;-78
2022/11/20 04:59:22;;;;;;;21.83;13.35;;;0.70;99.90;;;;;;5075658;28;20211;-77
2022/11/20 05:01:49;;;;;;;19.10;13.35;;;0.60;99.90;;;;;;5075217;28;20745;-77
2022/11/20 05:04:16;;;;;;;18.95;13.20;;;0.60;99.90;;;;;;5077030;28;20227;-77
2022/11/20 05:06:42;;;;;;;19.50;13.00;;;0.60;99.90;;;;;;5075544;28;20231;-78
2022/11/20 05:09:09;;;;;;;17.52;11.40;;;0.70;99.90;;;;;;5075486;28;20224;-77
2022/11/20 05:11:36;;;;;;;18.65;12.20;;;0.70;99.90;;;;;;5075719;28;20206;-78
2022/11/20 05:14:04;;;;;;;18.75;12.02;;;0.80;99.90;;;;;;5075534;28;20684;-78
2022/11/20 05:16:31;;;;;;;19.17;12.55;;;0.80;99.90;;;;;;5075579;28;20238;-77
2022/11/20 05:18:58;;;;;;;16.27;12.25;;;0.80;99.90;;;;;;5075286;28;20200;-78
2022/11/20 05:21:25;;;;;;;17.73;12.40;;;0.80;99.90;;;;;;5075360;28;20208;-78
2022/11/20 05:23:51;;;;;;;16.85;11.75;;;0.80;99.90;;;;;;5074677;28;20230;-78
2022/11/20 05:26:21;;;;;;;18.65;12.38;;;0.90;99.90;;;;;;5075027;28;20203;-78
2022/11/20 05:28:48;;;;;;;19.48;11.15;;;0.90;99.90;;;;;;5074996;28;20230;-78
2022/11/20 05:31:18;;;;;;;17.23;11.80;;;0.80;99.90;;;;;;5074894;28;20200;-78
2022/11/20 05:33:46;;;;;;;17.15;11.98;;;0.80;99.90;;;;;;5075670;28;20204;-80
2022/11/20 05:36:14;;;;;;;16.58;11.88;;;0.80;99.90;;;;;;5076677;28;20195;-79
2022/11/20 05:38:42;;;;;;;15.68;11.43;;;0.80;99.90;;;;;;5076717;28;20214;-80
2022/11/20 05:41:11;;;;;;;18.20;13.30;;;0.80;99.90;;;;;;5076219;28;20296;-80
2022/11/20 05:43:39;;;;;;;20.55;13.27;;;0.60;99.90;;;;;;5076185;28;20237;-80
2022/11/20 05:46:08;;;;;;;22.08;13.68;;;0.70;99.90;;;;;;5077413;28;20297;-80
2022/11/20 05:48:37;;;;;;;19.75;13.07;;;0.80;99.90;;;;;;5079652;28;20218;-80
2022/11/20 05:51:06;;;;;;;19.48;11.88;;;0.90;99.90;;;;;;5081390;28;20234;-80
2022/11/20 05:53:33;;;;;;;16.15;11.70;;;1.00;99.90;;;;;;5078900;28;20196;-79
2022/11/20 05:56:01;;;;;;;18.00;13.07;;;1.00;99.90;;;;;;5076289;28;20216;-79
2022/11/20 05:58:29;;;;;;;19.08;12.05;;;1.00;99.90;;;;;;5076222;28;20477;-80
2022/11/20 06:00:56;;;;;;;16.83;11.73;;;0.90;99.90;;;;;;5076199;28;20581;-80
2022/11/20 06:03:22;;;;;;;18.98;12.65;;;1.00;99.90;;;;;;5076065;28;20599;-79
2022/11/20 06:05:50;;;;;;;17.80;12.77;;;1.10;99.90;;;;;;5077158;28;20208;-80
2022/11/20 06:08:17;;;;;;;16.88;12.18;;;1.10;99.90;;;;;;5104201;22;20731;-79
2022/11/20 06:10:44;;;;;;;16.20;12.52;;;1.20;99.90;;;;;;5086806;28;20207;-79
2022/11/20 06:13:11;;;;;;;16.92;12.95;;;1.20;99.90;;;;;;5078237;28;20697;-79
2022/11/20 06:15:38;;;;;;;21.42;13.07;;;1.20;99.90;;;;;;5068838;28;20228;-79
2022/11/20 06:18:05;;;;;;;15.90;10.95;;;1.20;99.90;;;;;;5075844;28;20244;-79
2022/11/20 06:20:31;;;;;;;17.17;11.98;;;1.10;99.90;;;;;;5087297;28;20276;-79
2022/11/20 06:23:00;;;;;;;18.70;11.57;;;1.10;99.90;;;;;;5089113;28;20290;-78
2022/11/20 06:25:26;;;;;;;17.38;11.80;;;1.10;99.90;;;;;;5088216;28;20720;-78
2022/11/20 06:27:53;;;;;;;43.00;23.83;;;1.20;99.90;;;;;;5087928;28;20284;-78
2022/11/20 06:30:20;;;;;;;34.95;18.90;;;1.10;99.90;;;;;;5088542;28;20260;-78
2022/11/20 06:32:47;;;;;;;76.10;39.28;;;1.10;99.90;;;;;;5089143;28;20267;-78
2022/11/20 06:35:14;;;;;;;104.47;48.10;;;1.10;99.90;;;;;;5089998;28;20288;-79
2022/11/20 06:37:40;;;;;;;68.78;33.95;;;1.20;99.90;;;;;;5081672;28;20248;-79
2022/11/20 06:40:10;;;;;;;45.67;24.58;;;1.20;99.90;;;;;;5091643;28;20304;-81
2022/11/20 06:42:37;;;;;;;32.72;19.17;;;1.20;99.90;;;;;;5095136;28;20199;-78
2022/11/20 06:45:04;;;;;;;35.78;19.35;;;1.30;99.90;;;;;;5089402;28;20296;-80
2022/11/20 06:47:31;;;;;;;28.88;17.60;;;1.20;99.90;;;;;;5086267;28;20240;-79
2022/11/20 06:49:58;;;;;;;30.17;19.42;;;1.20;99.90;;;;;;5086713;28;20679;-79
2022/11/20 06:52:25;;;;;;;31.77;18.55;;;1.20;99.90;;;;;;5084419;28;20264;-79
2022/11/20 06:54:52;;;;;;;25.50;16.50;;;1.10;99.90;;;;;;5084397;28;20279;-79
2022/11/20 06:57:20;;;;;;;23.48;15.25;;;1.00;99.90;;;;;;5083919;28;20609;-79
2022/11/20 06:59:46;;;;;;;22.45;15.27;;;1.10;99.90;;;;;;5083960;28;20279;-79
2022/11/20 07:02:13;;;;;;;24.75;15.20;;;1.10;99.90;;;;;;5069442;28;20211;-79
2022/11/20 07:04:41;;;;;;;22.67;13.35;;;1.00;99.90;;;;;;5064672;28;20297;-79
2022/11/20 07:07:09;;;;;;;25.25;16.13;;;1.00;99.90;;;;;;5082043;28;20215;-79
2022/11/20 07:09:36;;;;;;;21.60;14.10;;;0.80;99.90;;;;;;5082428;28;20745;-79
2022/11/20 07:12:03;;;;;;;21.90;13.73;;;0.80;99.90;;;;;;5083160;28;20275;-79
2022/11/20 07:14:31;;;;;;;22.83;14.65;;;0.90;99.90;;;;;;5084896;28;20204;-78
2022/11/20 07:16:58;;;;;;;22.10;13.50;;;0.80;99.90;;;;;;5082517;28;20230;-79
2022/11/20 07:19:27;;;;;;;17.40;12.85;;;0.90;99.90;;;;;;5064468;28;20542;-79
2022/11/20 07:21:53;;;;;;;19.27;13.05;;;0.90;99.90;;;;;;5082256;28;20271;-78
2022/11/20 07:24:20;;;;;;;19.55;14.02;;;0.90;99.90;;;;;;5085583;28;20291;-79
2022/11/20 07:26:48;;;;;;;20.80;13.15;;;0.90;99.90;;;;;;5083502;28;20297;-79
2022/11/20 07:29:16;;;;;;;19.77;13.48;;;0.90;99.90;;;;;;5082634;28;20294;-79
2022/11/20 07:31:44;;;;;;;20.98;13.95;;;0.90;99.90;;;;;;5082259;28;20231;-78
2022/11/20 07:34:11;;;;;;;19.33;12.77;;;0.90;99.90;;;;;;5083340;28;20288;-77
2022/11/20 07:36:38;;;;;;;21.98;14.40;;;1.00;99.90;;;;;;5095678;28;20247;-78
2022/11/20 07:39:05;;;;;;;16.95;13.40;;;1.00;99.90;;;;;;5095000;28;20292;-78
2022/11/20 07:41:32;;;;;;;19.20;13.43;;;1.00;99.90;;;;;;5088540;28;20270;-78
2022/11/20 07:43:59;;;;;;;20.30;12.95;;;0.90;99.90;;;;;;5079741;28;20283;-79
2022/11/20 07:46:25;;;;;;;21.95;12.95;;;1.00;99.90;;;;;;5082140;28;20276;-79
2022/11/20 07:48:54;;;;;;;18.70;12.02;;;1.00;99.90;;;;;;5083468;28;20223;-79
2022/11/20 07:51:20;;;;;;;23.40;14.45;;;1.00;99.90;;;;;;5084212;28;20772;-79
2022/11/20 07:53:47;;;;;;;15.63;11.35;;;0.90;99.90;;;;;;5081611;28;20296;-79
2022/11/20 07:56:14;;;;;;;15.60;11.30;;;0.90;99.90;;;;;;5076569;28;20239;-78
2022/11/20 07:58:41;;;;;;;16.63;11.63;;;1.00;99.90;;;;;;5074300;28;20227;-78
2022/11/20 08:01:08;;;;;;;17.88;11.27;;;1.00;99.90;;;;;;5072090;28;20239;-77
2022/11/20 08:03:37;;;;;;;19.20;13.48;;;1.10;99.90;;;;;;5058530;28;20585;-78
2022/11/20 08:06:06;;;;;;;18.98;13.90;;;1.10;99.90;;;;;;5075728;28;20197;-77
2022/11/20 08:08:32;;;;;;;18.50;12.60;;;1.00;99.90;;;;;;5079212;28;20233;-77
2022/11/20 08:14:11;;;;;;;17.77;12.60;;;1.10;99.90;;;;;;5078737;28;20196;-78
2022/11/20 08:16:31;;;;;;;19.10;12.48;;;1.20;99.90;;;;;;5066098;28;20925;-78
2022/11/20 08:18:58;;;;;;;20.27;13.27;;;1.20;99.90;;;;;;5065576;28;20304;-78
2022/11/20 08:21:26;;;;;;;20.85;14.60;;;1.20;99.90;;;;;;5086391;28;20284;-78
2022/11/20 08:23:53;;;;;;;18.73;12.77;;;1.20;99.90;;;;;;5085948;28;20796;-78
2022/11/20 08:26:22;;;;;;;18.38;13.45;;;1.30;99.90;;;;;;5086025;28;20204;-79
2022/11/20 08:28:48;;;;;;;16.05;11.52;;;1.20;99.90;;;;;;5086196;28;20291;-78
2022/11/20 08:31:15;;;;;;;19.60;12.82;;;1.30;99.90;;;;;;5086224;28;20227;-79
2022/11/20 08:33:42;;;;;;;17.88;12.00;;;1.30;99.90;;;;;;5084296;28;20657;-78
2022/11/20 08:36:09;;;;;;;24.83;14.20;;;1.40;99.90;;;;;;5085981;28;20271;-78
2022/11/20 08:38:37;;;;;;;19.77;13.73;;;1.40;99.90;;;;;;5086379;28;20238;-78
2022/11/20 08:43:50;;;;;;;21.42;13.50;;;1.50;99.90;;;;;;5078750;28;20235;-79
2022/11/20 08:46:20;;;;;;;20.35;14.50;;;1.60;99.90;;;;;;5083273;28;20658;-78
2022/11/20 08:48:48;;;;;;;21.10;13.75;;;1.70;99.90;;;;;;5087338;28;20247;-77
2022/11/20 08:51:14;;;;;;;21.57;14.00;;;1.70;99.90;;;;;;5093549;28;20201;-77
2022/11/20 08:53:43;;;;;;;19.77;13.88;;;1.80;99.90;;;;;;5082354;28;20771;-77
2022/11/20 08:56:10;;;;;;;22.30;15.05;;;1.80;99.90;;;;;;5076336;28;20266;-79
2022/11/20 08:58:41;;;;;;;23.30;16.47;;;1.90;99.90;;;;;;5071295;28;20271;-76
2022/11/20 09:01:08;;;;;;;21.23;13.40;;;2.00;99.90;;;;;;5081803;28;20949;-77
2022/11/20 09:03:34;;;;;;;21.42;15.20;;;2.00;99.90;;;;;;5079136;28;20447;-76
2022/11/20 09:06:03;;;;;;;26.52;14.88;;;2.10;99.90;;;;;;5082969;28;20283;-80
2022/11/20 09:08:30;;;;;;;25.73;15.55;;;2.10;99.90;;;;;;5081157;28;20256;-79
2022/11/20 09:11:04;;;;;;;24.33;15.90;;;2.20;99.90;;;;;;5075014;28;20261;-79
2022/11/20 09:13:31;;;;;;;22.90;14.87;;;2.20;99.90;;;;;;5082604;28;20201;-79
2022/11/20 09:16:00;;;;;;;26.50;15.47;;;2.30;99.90;;;;;;5082821;28;20444;-79
2022/11/20 09:18:28;;;;;;;20.52;13.85;;;2.40;99.90;;;;;;5082294;28;20470;-80
2022/11/20 09:20:57;;;;;;;27.17;16.57;;;2.50;99.90;;;;;;5081928;28;20262;-80
2022/11/20 09:23:24;;;;;;;26.10;15.57;;;2.50;99.90;;;;;;5072653;28;20920;-79
2022/11/20 09:25:52;;;;;;;25.83;15.87;;;2.60;99.90;;;;;;5082339;28;20483;-80
2022/11/20 09:28:20;;;;;;;26.80;15.53;;;2.70;99.90;;;;;;5080814;28;20501;-79
2022/11/20 09:30:49;;;;;;;21.53;15.60;;;2.80;99.90;;;;;;5081784;28;20457;-80
2022/11/20 09:33:16;;;;;;;27.00;17.57;;;3.00;99.90;;;;;;5082235;28;20961;-80
2022/11/20 09:35:44;;;;;;;25.13;15.67;;;3.10;99.90;;;;;;5081344;28;20608;-79
2022/11/20 09:38:11;;;;;;;25.77;17.40;;;3.30;99.90;;;;;;5081873;28;20478;-79
2022/11/20 09:40:44;;;;;;;29.93;19.93;;;3.40;99.90;;;;;;5082437;28;20494;-80
2022/11/20 09:43:14;;;;;;;32.23;18.70;;;3.40;99.90;;;;;;5081824;28;20543;-78
2022/11/20 09:45:57;;;;;;;33.07;18.57;;;3.60;99.90;;;;;;5082666;28;20490;-79
2022/11/20 09:48:51;;;;;;;26.13;17.37;;;3.70;99.90;;;;;;5082343;28;21069;-80
2022/11/20 09:51:29;;;;;;;27.70;18.27;;;3.90;99.90;;;;;;5082522;28;20444;-80
2022/11/20 09:54:04;;;;;;;28.53;17.63;;;4.10;99.90;;;;;;5062917;28;20455;-79
2022/11/20 09:56:31;;;;;;;26.60;16.37;;;4.20;99.90;;;;;;5075764;28;20506;-78
2022/11/20 09:59:03;;;;;;;27.20;17.60;;;4.30;99.90;;;;;;5081516;28;20558;-78
2022/11/20 10:01:34;;;;;;;22.30;14.03;;;4.40;99.90;;;;;;5083344;28;20447;-79
2022/11/20 10:04:04;;;;;;;18.43;13.03;;;4.50;99.90;;;;;;5099824;28;20533;-79
2022/11/20 10:06:33;;;;;;;20.23;12.00;;;4.60;99.90;;;;;;5081635;28;20983;-79
2022/11/20 10:09:15;;;;;;;16.63;11.03;;;4.70;99.90;;;;;;5081307;28;21081;-78
2022/11/20 10:11:49;;;;;;;16.87;11.30;;;4.70;99.90;;;;;;5078465;28;20539;-79
2022/11/20 10:14:27;;;;;;;20.53;10.20;;;4.80;99.90;;;;;;5078045;28;20497;-78
2022/11/20 10:17:09;;;;;;;16.17;10.07;;;4.90;99.90;;;;;;5067836;28;20447;-78
2022/11/20 10:19:56;;;;;;;15.50;9.70;;;4.90;99.90;;;;;;5076568;28;20530;-78
2022/11/20 10:22:45;;;;;;;19.07;13.17;;;5.00;99.90;;;;;;5057087;28;20452;-78
2022/11/20 10:25:15;;;;;;;19.10;11.20;;;5.00;99.90;;;;;;5075619;28;20507;-78
2022/11/20 10:28:11;;;;;;;16.80;11.33;;;5.00;99.90;;;;;;5099954;28;20562;-78
2022/11/20 10:30:41;;;;;;;16.63;11.60;;;5.10;99.90;;;;;;5100547;28;20898;-78
2022/11/20 10:33:16;;;;;;;14.30;10.93;;;5.30;99.90;;;;;;5091109;28;20491;-78
2022/11/20 10:35:46;;;;;;;14.17;9.43;;;5.50;99.90;;;;;;5080138;28;20438;-78
2022/11/20 10:38:20;;;;;;;14.90;10.03;;;5.60;99.90;;;;;;5078956;28;20464;-79
2022/11/20 10:40:49;;;;;;;14.47;9.60;;;5.70;99.90;;;;;;5078311;28;20445;-78
2022/11/20 10:43:22;;;;;;;13.50;9.20;;;5.90;99.90;;;;;;5076627;28;20471;-77
2022/11/20 10:45:55;;;;;;;15.27;10.13;;;6.20;99.90;;;;;;5077784;28;20568;-79
2022/11/20 10:48:25;;;;;;;13.60;9.63;;;6.60;99.90;;;;;;5074319;28;20482;-77
2022/11/20 10:51:13;;;;;;;10.90;7.63;;;7.00;99.90;;;;;;5074342;28;20458;-77
2022/11/20 10:54:04;;;;;;;10.80;7.80;;;7.00;99.90;;;;;;5083763;28;20542;-76
2022/11/20 10:56:38;;;;;;;10.60;7.83;;;7.00;99.90;;;;;;5084239;28;20443;-76
2022/11/20 10:59:25;;;;;;;12.00;7.70;;;6.70;99.90;;;;;;5081045;28;20898;-78
2022/11/20 11:01:52;;;;;;;10.13;6.50;;;6.60;99.90;;;;;;5078519;28;20517;-77
2022/11/20 11:04:37;;;;;;;9.90;7.23;;;6.50;99.90;;;;;;5076713;28;20452;-77
2022/11/20 11:07:11;;;;;;;11.43;7.00;;;6.40;99.90;;;;;;5084530;28;20468;-78
2022/11/20 11:09:42;;;;;;;11.37;8.10;;;6.40;99.90;;;;;;5084930;28;20449;-78
2022/11/20 11:12:10;;;;;;;10.87;7.70;;;6.40;99.90;;;;;;5076552;28;20461;-78
2022/11/20 11:14:45;;;;;;;12.60;8.47;;;6.30;99.90;;;;;;5074926;28;20449;-78
2022/11/20 11:17:22;;;;;;;12.03;7.60;;;6.20;99.90;;;;;;5078514;28;20534;-78
2022/11/20 11:20:00;;;;;;;13.43;8.10;;;6.30;99.90;;;;;;5076171;28;20449;-78
2022/11/20 11:22:29;;;;;;;15.13;7.70;;;6.10;99.90;;;;;;5075641;28;20531;-78
2022/11/20 11:24:59;;;;;;;13.00;8.43;;;6.10;99.90;;;;;;5075604;28;20471;-77
2022/11/20 11:27:26;;;;;;;12.10;6.90;;;6.20;99.90;;;;;;5076252;28;20478;-78
2022/11/20 11:30:11;;;;;;;10.43;6.33;;;6.30;99.90;;;;;;5074352;28;20459;-78
2022/11/20 11:32:38;;;;;;;12.73;7.83;;;6.50;99.90;;;;;;5075844;28;20464;-78
2022/11/20 11:35:18;;;;;;;11.37;8.23;;;6.50;99.90;;;;;;5076415;28;20446;-78
2022/11/20 11:37:48;;;;;;;12.43;7.70;;;6.50;99.90;;;;;;5077614;28;20469;-77
2022/11/20 11:40:16;;;;;;;12.23;7.57;;;6.20;99.90;;;;;;5080843;28;20456;-78
2022/11/20 11:42:45;;;;;;;12.17;7.57;;;6.30;99.90;;;;;;5080949;28;20901;-78
2022/11/20 11:45:17;;;;;;;10.93;6.53;;;6.40;99.90;;;;;;5080632;28;20492;-77
2022/11/20 11:47:47;;;;;;;10.90;7.67;;;6.40;99.90;;;;;;5078482;28;20475;-78
2022/11/20 11:50:21;;;;;;;12.40;8.30;;;6.40;99.90;;;;;;5081023;28;20525;-78
2022/11/20 11:52:56;;;;;;;11.13;7.00;;;6.30;99.90;;;;;;5080874;28;20461;-78
2022/11/20 11:55:32;;;;;;;9.30;7.50;;;6.60;99.90;;;;;;5091531;28;20444;-78
2022/11/20 11:58:09;;;;;;;14.87;8.20;;;7.00;99.90;;;;;;5080684;28;20568;-79
2022/11/20 12:00:38;;;;;;;10.33;7.40;;;7.00;99.90;;;;;;5081426;28;20461;-77
2022/11/20 12:03:13;;;;;;;11.33;8.30;;;7.00;99.90;;;;;;5080671;28;20889;-78
2022/11/20 12:05:45;;;;;;;13.13;8.00;;;6.90;99.90;;;;;;5080708;28;20866;-78
2022/11/20 12:08:19;;;;;;;12.90;8.53;;;6.80;99.90;;;;;;5093359;22;20490;-81
2022/11/20 12:10:51;;;;;;;10.80;7.33;;;7.00;99.90;;;;;;5090727;28;20529;-82
2022/11/20 12:13:37;;;;;;;9.57;7.40;;;7.00;99.90;;;;;;5089872;28;20553;-82
2022/11/20 12:16:05;;;;;;;12.60;8.27;;;6.80;99.90;;;;;;5090829;28;20483;-81
2022/11/20 12:18:32;;;;;;;12.20;7.47;;;6.90;99.90;;;;;;5085595;28;20512;-81
2022/11/20 12:21:13;;;;;;;11.23;7.70;;;6.80;99.90;;;;;;5073574;28;20541;-81
2022/11/20 12:23:49;;;;;;;11.77;7.70;;;6.80;99.90;;;;;;5069188;28;20455;-83
2022/11/20 12:26:22;;;;;;;11.43;8.57;;;6.80;99.90;;;;;;5067795;28;20561;-82
2022/11/20 12:29:06;;;;;;;10.30;7.30;;;6.70;99.90;;;;;;5081097;28;20470;-81
2022/11/20 12:31:49;;;;;;;10.30;7.43;;;6.70;99.90;;;;;;5063208;28;20510;-82
2022/11/20 12:34:45;;;;;;;11.17;7.77;;;6.60;99.90;;;;;;5048047;28;20462;-82
2022/11/20 12:37:26;;;;;;;12.17;7.57;;;6.60;99.90;;;;;;5052040;28;20443;-82
2022/11/20 12:39:58;;;;;;;14.23;9.37;;;6.60;99.90;;;;;;5071235;28;20527;-82
2022/11/20 12:45:49;;;;;;;14.10;8.47;;;6.50;99.90;;;;;;5070929;28;20522;-80
2022/11/20 12:48:42;;;;;;;14.67;9.40;;;6.40;99.90;;;;;;5075266;28;20558;-80
2022/11/20 12:51:31;;;;;;;13.17;8.77;;;6.30;99.90;;;;;;5080020;28;20530;-80
2022/11/20 12:54:24;;;;;;;12.43;8.27;;;6.30;99.90;;;;;;5073755;28;20544;-80
2022/11/20 12:56:58;;;;;;;14.47;8.70;;;6.30;99.90;;;;;;5078076;28;20453;-80
2022/11/20 12:59:41;;;;;;;13.40;8.40;;;6.30;99.90;;;;;;5070209;28;20540;-80
2022/11/20 13:02:23;;;;;;;14.33;8.10;;;6.30;99.90;;;;;;5070076;28;20523;-80
2022/11/20 13:05:04;;;;;;;13.17;8.80;;;6.30;99.90;;;;;;5069858;28;20541;-81
2022/11/20 13:07:32;;;;;;;13.50;8.93;;;6.10;99.90;;;;;;5078882;28;20450;-80
2022/11/20 13:10:02;;;;;;;12.43;7.50;;;6.00;99.90;;;;;;5076917;28;20563;-82